Terminal Aerodrome Forecast
Issued by NWS

Home | Current Version | Previous Version | Text Only | Print | Product List | Glossary On
Versions: 1 2 3 4 5 6 7 8 9 10 11 12 13 14 15 16 17 18 19 20 21
454
FTUS42 KJAX 301720
TAFCRG
TAF
KCRG 301720Z 3018/0118 12012G16KT P6SM SCT250
     FM010400 15005KT P6SM SCT060 SCT250
     FM011400 17010KT P6SM SCT040 BKN080=

USA.gov is the U.S. government's official web portal to all federal, state and local government web resources and services.